Terminal Aerodrome Forecast
Issued by NWS Boston, MA

Home | Current Version | Previous Version | Text Only | Print | Product List | Glossary On
Versions: 1 2 3 4 5 6 7 8 9 10 11 12 13 14 15 16 17 18 19 20 21 22 23 24 25 26 27 28 29 30 31 32 33 34 35
000
FTUS41 KBOX 012321
TAFORH
TAF
KORH 012321Z 0200/0224 33004KT P6SM BKN100
     FM020200 03005KT P6SM OVC080
     FM020500 06006KT 5SM -SN OVC020
     FM020600 07006KT 1SM -SN OVC008
     FM021000 06010KT 1/4SM +SN OVC003
     FM021700 04013KT 1/4SM +SNPL OVC008
     FM022300 35012KT 2SM -SN OVC035=

USA.gov is the U.S. government's official web portal to all federal, state and local government web resources and services.